createdAt,value
2023-02-20T00:01:57.042Z,5.43
2023-02-20T00:04:24.051Z,3.83
2023-02-20T00:06:50.833Z,4.68
2023-02-20T00:09:17.838Z,5.35
2023-02-20T00:11:44.878Z,8.10
2023-02-20T00:14:11.719Z,3.10
2023-02-20T00:16:38.670Z,9.32
2023-02-20T00:19:05.795Z,5.72
2023-02-20T00:21:32.656Z,3.58
2023-02-20T00:23:59.393Z,13.85
2023-02-20T00:26:26.164Z,6.50
2023-02-20T00:28:52.942Z,4.28
2023-02-20T00:31:20.413Z,3.55
2023-02-20T00:33:47.338Z,11.65
2023-02-20T00:36:19.334Z,5.47
2023-02-20T00:38:46.856Z,1.27
2023-02-20T00:41:15.487Z,5.18
2023-02-20T00:43:43.056Z,4.15
2023-02-20T00:46:14.966Z,4.43
2023-02-20T00:48:42.102Z,6.55
2023-02-20T00:51:09.064Z,4.93
2023-02-20T00:53:35.841Z,7.28
2023-02-20T00:56:02.667Z,4.40
2023-02-20T00:58:30.145Z,3.78
2023-02-20T05:01:08.838Z,1.95
2023-02-20T05:03:35.721Z,4.78
2023-02-20T05:06:02.401Z,1.77
2023-02-20T05:08:31.993Z,2.67
2023-02-20T05:10:58.702Z,2.78
2023-02-20T05:13:25.406Z,1.60
2023-02-20T05:15:52.193Z,3.30
2023-02-20T05:18:30.737Z,1.95
2023-02-20T05:21:16.918Z,1.67
2023-02-20T05:23:45.616Z,1.20
2023-02-20T05:26:16.972Z,1.60
2023-02-20T05:28:43.805Z,3.97
2023-02-20T05:31:10.827Z,2.15
2023-02-20T05:33:37.701Z,2.67
2023-02-20T05:36:05.036Z,2.25
2023-02-20T05:38:31.748Z,1.75
2023-02-20T05:40:58.460Z,1.63
2023-02-20T05:43:25.269Z,2.42
2023-02-20T05:45:51.965Z,1.90
2023-02-20T05:48:18.699Z,2.35
2023-02-20T05:50:45.440Z,2.22
2023-02-20T05:53:12.100Z,1.75
2023-02-20T05:55:38.752Z,3.15
2023-02-20T05:58:05.421Z,2.67
2023-02-20T06:00:32.191Z,2.38
2023-02-20T06:02:59.009Z,2.20
2023-02-20T06:05:26.511Z,2.25
2023-02-20T06:07:53.271Z,3.35
2023-02-20T06:10:20.250Z,1.90
2023-02-20T06:12:47.172Z,2.90
2023-02-20T06:15:13.877Z,3.97
2023-02-20T06:17:40.566Z,2.13
2023-02-20T06:20:07.910Z,1.70
2023-02-20T06:22:34.606Z,3.13
2023-02-20T06:25:01.308Z,3.42
2023-02-20T06:27:28.077Z,2.80
2023-02-20T06:29:54.778Z,2.65
2023-02-20T06:32:21.587Z,1.77
2023-02-20T06:34:48.270Z,3.35
2023-02-20T06:37:15.093Z,2.58
2023-02-20T06:39:45.651Z,1.52
2023-02-20T06:42:12.592Z,3.00
2023-02-20T06:44:39.310Z,7.68
2023-02-20T06:47:08.962Z,3.67
2023-02-20T06:49:36.906Z,2.33
2023-02-20T06:52:05.120Z,3.08
2023-02-20T06:54:32.266Z,2.65
2023-02-20T06:56:59.462Z,3.28
2023-02-20T06:59:26.708Z,2.63
2023-02-20T07:01:53.438Z,2.67
2023-02-20T07:04:26.609Z,4.05
2023-02-20T07:06:54.212Z,3.00
2023-02-20T07:09:21.036Z,2.83
2023-02-20T07:11:50.443Z,2.33
2023-02-20T07:14:17.187Z,4.78
2023-02-20T07:16:43.901Z,3.25
2023-02-20T07:19:10.884Z,2.13
2023-02-20T07:21:37.961Z,3.13
2023-02-20T07:24:05.187Z,3.35
2023-02-20T07:26:32.420Z,1.25
2023-02-20T07:29:00.839Z,2.88
2023-02-20T07:31:28.900Z,4.45
2023-02-20T07:33:55.852Z,3.97
2023-02-20T07:36:22.861Z,2.35
2023-02-20T07:38:57.497Z,4.28
2023-02-20T07:41:26.300Z,2.28
2023-02-20T07:43:53.148Z,1.58
2023-02-20T07:46:20.632Z,2.15
2023-02-20T07:48:47.747Z,1.75
2023-02-20T07:51:15.011Z,2.55
2023-02-20T07:53:53.219Z,2.40
2023-02-20T07:56:20.743Z,3.67
2023-02-20T07:58:48.194Z,1.65
2023-02-20T08:01:15.380Z,2.10
2023-02-20T08:03:42.234Z,2.67
2023-02-20T08:06:09.308Z,3.05
2023-02-20T08:08:39.336Z,0.80
2023-02-20T08:11:09.490Z,1.35
2023-02-20T08:13:37.152Z,2.88
2023-02-20T08:16:03.991Z,1.30
2023-02-20T08:18:30.716Z,1.75
2023-02-20T08:20:57.411Z,1.08
2023-02-20T08:23:24.626Z,1.17
2023-02-20T08:25:52.060Z,2.08
2023-02-20T08:28:19.516Z,1.33
2023-02-20T08:30:47.003Z,1.15
2023-02-20T08:33:13.981Z,1.27
2023-02-20T08:35:41.291Z,1.05
2023-02-20T08:38:29.926Z,2.13
2023-02-20T08:40:57.579Z,1.27
2023-02-20T08:43:26.407Z,0.80
2023-02-20T08:45:54.616Z,0.80
2023-02-20T08:48:21.392Z,0.57
2023-02-20T08:50:48.176Z,1.08
2023-02-20T08:53:15.552Z,1.30
2023-02-20T08:55:42.648Z,0.68
2023-02-20T08:58:09.760Z,1.00
2023-02-20T09:00:36.652Z,0.85
2023-02-20T09:03:07.314Z,1.42
2023-02-20T09:05:37.000Z,1.30
2023-02-20T09:08:06.331Z,0.85
2023-02-20T09:10:33.084Z,1.58
2023-02-20T09:12:59.905Z,1.17
2023-02-20T09:15:26.670Z,0.90
2023-02-20T09:17:54.280Z,0.82
2023-02-20T09:20:22.625Z,2.38
2023-02-20T09:22:50.888Z,0.95
2023-02-20T09:25:19.187Z,1.85
2023-02-20T09:27:45.994Z,0.85
2023-02-20T09:30:19.520Z,0.80
2023-02-20T09:32:50.386Z,2.25
2023-02-20T09:35:25.597Z,0.50
2023-02-20T09:37:53.084Z,0.70
2023-02-20T09:40:26.337Z,2.58
2023-02-20T09:43:37.362Z,1.95
2023-02-20T09:46:17.757Z,2.45
2023-02-20T09:48:53.364Z,0.85
2023-02-20T09:51:23.121Z,5.38
2023-02-20T09:54:05.088Z,2.22
2023-02-20T09:56:59.401Z,1.15
2023-02-20T09:59:41.202Z,0.70
2023-02-20T10:02:42.751Z,1.13
2023-02-20T10:05:29.922Z,1.85
2023-02-20T10:07:56.638Z,4.03
2023-02-20T10:10:34.153Z,1.20
2023-02-20T10:13:19.585Z,1.00
2023-02-20T10:16:20.419Z,2.35
2023-02-20T10:18:53.700Z,1.10
2023-02-20T10:21:35.341Z,0.70
2023-02-20T10:24:29.297Z,0.73
2023-02-20T10:27:19.755Z,2.38
2023-02-20T10:29:46.965Z,0.68
2023-02-20T10:32:21.449Z,0.70
2023-02-20T10:34:59.779Z,1.75
2023-02-20T10:37:46.414Z,0.95
2023-02-20T10:40:30.491Z,1.10
2023-02-20T10:43:10.174Z,1.05
2023-02-20T10:45:50.162Z,0.93
2023-02-20T10:48:17.045Z,0.68
2023-02-20T10:50:55.735Z,0.93
2023-02-20T10:53:47.006Z,2.78
2023-02-20T10:56:27.738Z,1.70
2023-02-20T10:59:02.418Z,1.77
2023-02-20T11:01:31.197Z,0.63
2023-02-20T11:04:19.743Z,0.90
2023-02-20T11:06:47.559Z,1.25
2023-02-20T11:09:14.433Z,1.83
2023-02-20T11:11:45.036Z,1.42
2023-02-20T11:14:27.875Z,2.20
2023-02-20T11:17:07.696Z,1.35
2023-02-20T11:19:39.077Z,0.95
2023-02-20T11:22:05.801Z,0.50
2023-02-20T11:24:36.168Z,1.65
2023-02-20T11:27:15.499Z,0.57
2023-02-20T11:30:00.623Z,1.63
2023-02-20T11:32:33.567Z,2.63
2023-02-20T11:35:17.588Z,0.93
2023-02-20T11:38:11.932Z,2.58
2023-02-20T11:40:38.725Z,0.85
2023-02-20T11:43:21.252Z,1.65
2023-02-20T11:45:48.185Z,1.05
2023-02-20T11:48:19.978Z,1.17
2023-02-20T11:50:48.379Z,1.98
2023-02-20T11:53:28.304Z,0.65
2023-02-20T11:56:16.908Z,0.85
2023-02-20T11:58:45.637Z,2.63
2023-02-20T12:01:34.310Z,1.65
2023-02-20T12:04:01.879Z,4.75
2023-02-20T12:06:36.192Z,2.03
2023-02-20T12:09:06.895Z,1.77
2023-02-20T12:11:33.630Z,1.25
2023-02-20T12:14:03.562Z,10.02
2023-02-20T12:17:04.387Z,1.05
2023-02-20T12:19:37.002Z,0.77
2023-02-20T12:25:04.121Z,2.15
2023-02-20T12:28:05.205Z,0.88
2023-02-20T12:30:38.340Z,2.13
2023-02-20T12:33:20.105Z,3.78
2023-02-20T12:36:10.678Z,1.40
2023-02-20T12:38:48.621Z,1.05
2023-02-20T12:41:24.553Z,2.22
2023-02-20T12:44:12.918Z,6.72
2023-02-20T12:47:02.066Z,7.35
2023-02-20T12:49:47.484Z,1.15
2023-02-20T12:52:44.979Z,1.33
2023-02-20T12:55:40.163Z,1.80
2023-02-20T12:58:32.197Z,0.90
2023-02-20T13:01:05.780Z,0.90
2023-02-20T13:03:52.472Z,0.57
2023-02-20T13:06:42.831Z,3.60
2023-02-20T13:09:24.658Z,2.10
2023-02-20T13:11:57.013Z,1.40
2023-02-20T13:14:41.149Z,0.40
2023-02-20T13:17:35.528Z,1.95
2023-02-20T13:20:35.231Z,0.88
2023-02-20T13:23:17.041Z,0.40
2023-02-20T13:25:45.780Z,1.20
2023-02-20T13:28:12.449Z,0.93
2023-02-20T13:30:40.853Z,1.77
2023-02-20T13:33:28.877Z,3.58
2023-02-20T13:35:57.230Z,2.45
2023-02-20T13:38:26.527Z,2.60
2023-02-20T13:40:56.024Z,2.55
2023-02-20T13:43:22.732Z,3.08
2023-02-20T13:46:11.415Z,4.50
2023-02-20T13:48:46.914Z,0.85
2023-02-20T13:51:16.814Z,0.63
2023-02-20T13:54:05.381Z,1.15
2023-02-20T13:56:54.777Z,1.75
2023-02-20T13:59:21.702Z,0.60
2023-02-20T14:02:15.995Z,0.75
2023-02-20T14:05:05.507Z,0.50
2023-02-20T14:07:37.549Z,1.40
2023-02-20T14:10:13.825Z,0.52
2023-02-20T14:12:40.585Z,1.42
2023-02-20T14:15:08.312Z,1.73
2023-02-20T14:17:40.700Z,2.00
2023-02-20T14:20:19.315Z,1.25
2023-02-20T14:22:46.122Z,1.15
2023-02-20T14:25:12.747Z,0.95
2023-02-20T14:27:40.742Z,1.23
2023-02-20T14:30:08.899Z,1.40
2023-02-20T14:32:36.768Z,1.55
2023-02-20T14:35:09.699Z,2.22
2023-02-20T14:37:52.219Z,2.33
2023-02-20T14:40:31.916Z,1.95
2023-02-20T14:43:03.709Z,4.03
2023-02-20T14:45:30.662Z,2.40
2023-02-20T14:47:59.805Z,1.45
2023-02-20T14:50:26.435Z,2.22
2023-02-20T14:53:07.219Z,8.32
2023-02-20T14:55:34.017Z,0.95
2023-02-20T14:58:13.228Z,3.83
2023-02-20T15:00:41.023Z,1.40
2023-02-20T15:03:29.671Z,0.93
2023-02-20T15:06:04.553Z,1.35
2023-02-20T15:08:36.380Z,1.98
2023-02-20T15:11:13.056Z,1.73
2023-02-20T15:13:42.781Z,4.40
2023-02-20T15:16:21.518Z,1.77
2023-02-20T15:18:50.335Z,18.33
2023-02-20T15:21:32.533Z,0.70
2023-02-20T15:24:24.959Z,2.30
2023-02-20T15:26:52.292Z,2.95
2023-02-20T15:29:21.142Z,1.80
2023-02-20T15:31:57.201Z,3.03
2023-02-20T15:34:36.785Z,1.27
2023-02-20T15:37:38.384Z,1.98
2023-02-20T15:40:21.641Z,0.95
2023-02-20T15:42:50.055Z,3.22
2023-02-20T15:45:16.866Z,1.88
2023-02-20T15:47:43.640Z,1.60
2023-02-20T15:50:10.526Z,4.85
2023-02-20T15:52:37.344Z,0.98
2023-02-20T15:55:04.766Z,2.10
2023-02-20T15:57:31.464Z,1.55
2023-02-20T15:59:58.544Z,1.65
2023-02-20T16:02:25.530Z,4.82
2023-02-20T16:04:52.774Z,2.35
2023-02-20T16:07:20.961Z,2.40
2023-02-20T16:09:48.044Z,3.10
2023-02-20T16:12:22.943Z,1.58
2023-02-20T16:14:53.708Z,2.72
2023-02-20T16:17:25.513Z,1.92
2023-02-20T16:19:52.506Z,1.60
2023-02-20T16:22:19.320Z,1.90
2023-02-20T16:24:47.064Z,1.55
2023-02-20T16:27:28.160Z,3.15
2023-02-20T16:29:56.709Z,5.63
2023-02-20T16:32:30.255Z,1.08
2023-02-20T16:34:59.092Z,1.15
2023-02-20T16:37:26.831Z,2.47
2023-02-20T16:39:54.096Z,5.63
2023-02-20T16:42:24.782Z,3.83
2023-02-20T16:44:55.075Z,3.03
2023-02-20T16:47:24.725Z,3.60
2023-02-20T16:49:52.089Z,8.02
2023-02-20T16:52:23.794Z,4.22
2023-02-20T16:54:50.826Z,2.87
2023-02-20T16:57:18.602Z,1.90
2023-02-20T16:59:45.382Z,4.18
2023-02-20T17:02:21.154Z,1.60
2023-02-20T17:04:48.784Z,1.92
2023-02-20T17:07:16.267Z,1.55
2023-02-20T17:09:46.495Z,2.50
2023-02-20T17:12:18.004Z,2.13
2023-02-20T17:14:45.973Z,3.00
2023-02-20T17:17:13.926Z,2.50
2023-02-20T17:19:42.696Z,2.72
2023-02-20T17:22:10.784Z,1.67
2023-02-20T17:24:41.308Z,2.00
2023-02-20T17:27:08.159Z,1.92
2023-02-20T17:29:34.903Z,1.27
2023-02-20T17:32:01.848Z,3.28
2023-02-20T17:34:28.634Z,3.95
2023-02-20T17:36:55.301Z,1.98
2023-02-20T17:39:23.731Z,3.10
2023-02-20T17:41:52.736Z,1.58
2023-02-20T17:44:30.753Z,1.80
2023-02-20T17:46:59.938Z,1.27
2023-02-20T17:49:27.715Z,1.48
2023-02-20T17:51:58.987Z,1.95
2023-02-20T17:54:27.821Z,1.60
2023-02-20T17:56:55.424Z,4.80
2023-02-20T17:59:23.747Z,2.35
2023-02-20T18:01:51.131Z,5.18
2023-02-20T18:04:21.181Z,2.58
2023-02-20T18:06:48.891Z,4.40
2023-02-20T18:09:18.043Z,1.83
2023-02-20T18:11:46.154Z,4.00
2023-02-20T18:14:13.499Z,2.58
2023-02-20T18:16:40.405Z,2.67
2023-02-20T18:19:13.684Z,2.50
2023-02-20T18:21:42.424Z,3.03
2023-02-20T18:24:10.478Z,1.73
2023-02-20T18:26:37.855Z,2.85
2023-02-20T18:29:04.680Z,3.58
2023-02-20T18:31:31.880Z,3.00
2023-02-20T18:33:58.931Z,1.80
2023-02-20T18:36:26.156Z,1.95
2023-02-20T18:38:52.880Z,2.70
2023-02-20T18:41:20.467Z,2.25
2023-02-20T18:43:47.682Z,1.55
2023-02-20T18:46:26.364Z,1.20
2023-02-20T18:48:53.257Z,1.50
2023-02-20T18:51:26.863Z,2.45
2023-02-20T18:53:53.680Z,0.95
2023-02-20T18:56:21.278Z,2.05
2023-02-20T18:58:47.981Z,1.98
2023-02-20T19:01:19.552Z,1.20
2023-02-20T19:03:53.690Z,1.38
2023-02-20T19:06:29.293Z,1.20
2023-02-20T19:08:56.190Z,2.88
2023-02-20T19:11:23.000Z,2.00
2023-02-20T19:13:49.720Z,3.00
2023-02-20T19:16:17.203Z,1.80
2023-02-20T19:18:50.445Z,1.60
2023-02-20T19:21:18.991Z,1.70
2023-02-20T19:23:46.534Z,1.90
2023-02-20T19:26:14.106Z,1.42
2023-02-20T19:28:44.324Z,1.85
2023-02-20T19:31:12.149Z,4.20
2023-02-20T19:33:39.383Z,2.08
2023-02-20T19:36:09.894Z,5.03
2023-02-20T19:38:38.952Z,2.78
2023-02-20T19:41:05.666Z,4.60
2023-02-20T19:43:32.461Z,3.22
2023-02-20T19:45:59.221Z,4.78
2023-02-20T19:48:28.017Z,7.63
2023-02-20T19:50:56.390Z,5.68
2023-02-20T19:53:24.034Z,3.80
2023-02-20T19:55:54.291Z,5.43
2023-02-20T19:58:21.585Z,5.82
2023-02-20T20:00:48.394Z,3.90
2023-02-20T20:03:15.207Z,10.00
2023-02-20T20:05:41.939Z,6.25
2023-02-20T20:08:08.768Z,7.03
2023-02-20T20:10:35.519Z,3.97
2023-02-20T20:13:02.643Z,7.78
2023-02-20T20:15:29.570Z,5.22
2023-02-20T20:17:59.547Z,7.20
2023-02-20T20:20:27.398Z,5.13
2023-02-20T20:22:57.613Z,6.07
2023-02-20T20:25:24.958Z,6.30
2023-02-20T20:27:52.812Z,7.88
2023-02-20T20:30:27.799Z,5.15
2023-02-20T20:32:56.852Z,6.28
2023-02-20T20:35:25.848Z,6.78
2023-02-20T20:37:56.467Z,6.93
2023-02-20T20:40:25.936Z,8.10
2023-02-20T20:42:53.215Z,12.55
2023-02-20T20:45:21.530Z,7.57
2023-02-20T20:47:48.497Z,5.60
2023-02-20T20:50:18.579Z,8.90
2023-02-20T20:52:45.513Z,8.50
2023-02-20T20:55:12.773Z,8.82
2023-02-20T20:57:41.175Z,5.63
2023-02-20T21:00:29.913Z,7.43
2023-02-20T21:02:56.782Z,7.00
2023-02-20T21:05:28.340Z,4.85
2023-02-20T21:07:55.562Z,8.18
2023-02-20T21:10:22.922Z,6.00
2023-02-20T21:12:49.630Z,7.22
2023-02-20T21:15:16.727Z,6.50
2023-02-20T21:17:44.117Z,10.00
2023-02-20T21:20:17.162Z,6.75
2023-02-20T21:22:43.943Z,6.07
2023-02-20T21:25:10.831Z,6.43
2023-02-20T21:27:37.594Z,5.90
2023-02-20T21:30:05.316Z,7.88
2023-02-20T21:32:32.244Z,9.18
2023-02-20T21:34:59.000Z,9.43
2023-02-20T21:37:27.648Z,8.07
2023-02-20T21:39:54.589Z,10.30
2023-02-20T21:42:40.282Z,11.80
2023-02-20T21:45:07.240Z,15.05
2023-02-20T21:47:34.029Z,10.02
2023-02-20T21:50:00.801Z,10.70
2023-02-20T21:52:30.056Z,6.68
2023-02-20T21:54:56.765Z,10.45
2023-02-20T21:57:26.485Z,8.07
2023-02-20T21:59:53.283Z,7.93
2023-02-20T22:02:21.630Z,7.95
2023-02-20T22:04:49.033Z,6.90
2023-02-20T22:07:34.499Z,6.05
2023-02-20T22:10:19.709Z,7.22
2023-02-20T22:13:05.631Z,7.82
2023-02-20T22:15:51.346Z,8.40
2023-02-20T22:18:36.742Z,6.80
2023-02-20T22:21:22.189Z,7.20
2023-02-20T22:24:07.719Z,10.10
2023-02-20T22:26:52.869Z,6.45
2023-02-20T22:29:38.580Z,5.47
2023-02-20T22:32:24.300Z,6.22
2023-02-20T22:35:12.013Z,5.88
2023-02-20T22:37:58.142Z,5.50
2023-02-20T22:40:43.566Z,4.25
2023-02-20T22:43:29.091Z,8.68
2023-02-20T22:46:14.732Z,8.15
2023-02-20T22:49:00.027Z,5.53
2023-02-20T22:51:45.533Z,7.45
2023-02-20T22:54:30.808Z,5.95
2023-02-20T22:57:16.297Z,11.32
2023-02-20T23:00:02.283Z,6.38
2023-02-20T23:02:48.212Z,5.43
2023-02-20T23:05:33.566Z,7.68
2023-02-20T23:08:19.271Z,7.22
2023-02-20T23:11:04.675Z,6.03
2023-02-20T23:13:50.720Z,9.05
2023-02-20T23:16:42.788Z,5.45
2023-02-20T23:19:29.335Z,6.87
2023-02-20T23:22:15.335Z,4.40
2023-02-20T23:25:01.051Z,5.30
2023-02-20T23:27:46.605Z,9.05
2023-02-20T23:30:32.664Z,9.05
2023-02-20T23:33:19.705Z,6.65
2023-02-20T23:36:05.295Z,6.65
2023-02-20T23:38:50.910Z,5.95
2023-02-20T23:41:36.302Z,5.28
2023-02-20T23:44:25.658Z,4.85
2023-02-20T23:47:10.992Z,6.35
2023-02-20T23:49:56.484Z,5.70
2023-02-20T23:52:42.074Z,5.25
2023-02-20T23:55:27.478Z,6.68
2023-02-20T23:58:12.850Z,7.72
